KCUH/CUH METAR and TAF weather

Enter ICAO airport designator
Station Type Date Time Source
KCUH METAR 2019/04/18 20:15 UTC NOAA

KCUH 182015Z AUTO 34020G25KT 10SM SCT060 SCT070 19/06 A2985 RMK AO2 T01910063


Station Type Date Time Source
KCUH Decoded METAR 2019/04/18 20:15 UTC NOAA

Cushing, Cushing Municipal Airport, OK, United States (KCUH) 35-56-59N 096-46-22W
Apr 18, 2019 - 04:15 PM EDT / 2019.04.18 2015 UTC
Wind: from the NNW (340 degrees) at 23 MPH (20 KT) gusting to 29 MPH (25 KT):0
Visibility: 10 mile(s):0
Sky conditions: partly cloudy
Temperature: 66.4 F (19.1 C)
Dew Point: 43.3 F (6.3 C)
Relative Humidity: 43%
Pressure (altimeter): 29.85 in. Hg (1010 hPa)
ob: KCUH 182015Z AUTO 34020G25KT 10SM SCT060 SCT070 19/06 A2985 RMK AO2 T01910063
cycle: 20

Station Type Date Time Source
KCUH TAF UTC NOAA

Error!

Example: see airport list